Time;durP1;ratioP1;P1;durP2;ratioP2;P2;SDS_P1;SDS_P2;PMS_P1;PMS_P2;Temp;Humidity;BMP_temperature;BMP_pressure;BME280_temperature;BME280_humidity;BME280_pressure;Samples;Min_cycle;Max_cycle;Signal;HPM_P1;HPM_P2
2021/10/29 00:02:09;;;;;;;275.20;108.32;;;10.10;99.90;;;;;;4996500;28;20090;-92
2021/10/29 00:04:36;;;;;;;271.88;109.40;;;10.10;99.90;;;;;;4999828;28;20121;-93
2021/10/29 00:07:02;;;;;;;303.15;121.75;;;10.30;99.90;;;;;;4999617;28;20022;-93
2021/10/29 00:09:27;;;;;;;350.02;133.88;;;10.30;99.90;;;;;;4999575;28;20046;-93
2021/10/29 00:11:53;;;;;;;299.35;118.57;;;10.30;99.90;;;;;;4999545;28;20492;-93
2021/10/29 00:14:19;;;;;;;202.00;88.03;;;10.40;99.90;;;;;;4999844;28;20022;-93
2021/10/29 00:16:45;;;;;;;205.82;88.35;;;10.40;99.90;;;;;;4999583;28;20026;-93
2021/10/29 00:19:10;;;;;;;331.05;131.85;;;10.40;99.90;;;;;;4999515;28;20052;-93
2021/10/29 00:21:36;;;;;;;295.35;116.82;;;10.50;99.90;;;;;;4998987;28;20053;-93
2021/10/29 00:24:02;;;;;;;202.98;82.47;;;10.50;99.90;;;;;;4999494;28;20022;-94
2021/10/29 00:26:27;;;;;;;62.17;35.53;;;10.50;99.90;;;;;;4999217;28;20065;-93
2021/10/29 00:28:53;;;;;;;54.90;32.63;;;10.60;99.90;;;;;;4999211;28;20030;-93
2021/10/29 00:31:19;;;;;;;42.75;27.92;;;10.60;99.90;;;;;;4999197;28;20026;-93
2021/10/29 00:33:45;;;;;;;42.47;26.25;;;10.70;99.90;;;;;;4999105;28;20499;-94
2021/10/29 00:36:10;;;;;;;39.47;25.48;;;10.80;99.90;;;;;;4999222;28;20084;-93
2021/10/29 00:38:36;;;;;;;39.05;24.90;;;10.80;99.90;;;;;;4998985;28;20030;-93
2021/10/29 00:41:02;;;;;;;42.22;25.10;;;10.90;99.90;;;;;;4999252;28;20455;-93
2021/10/29 00:43:27;;;;;;;39.95;24.38;;;10.90;99.90;;;;;;4999131;28;20036;-94
2021/10/29 00:45:53;;;;;;;56.80;30.52;;;11.00;99.90;;;;;;4998990;28;20018;-93
2021/10/29 00:48:19;;;;;;;42.20;24.58;;;11.10;99.90;;;;;;4998955;28;20026;-94
2021/10/29 00:50:46;;;;;;;37.70;23.02;;;11.10;99.90;;;;;;4998854;28;20494;-93
2021/10/29 00:53:12;;;;;;;38.45;23.65;;;11.10;99.90;;;;;;4998856;28;20047;-93
2021/10/29 00:55:38;;;;;;;40.88;24.88;;;11.10;99.90;;;;;;4999148;28;20087;-93
2021/10/29 00:58:04;;;;;;;37.28;24.75;;;11.10;99.90;;;;;;4998423;28;20034;-93
2021/10/29 01:00:30;;;;;;;37.40;24.65;;;11.20;99.90;;;;;;4998595;28;20058;-93
2021/10/29 01:02:56;;;;;;;41.47;26.38;;;11.20;99.90;;;;;;4998575;28;20026;-92
2021/10/29 01:05:22;;;;;;;45.20;27.38;;;11.20;99.90;;;;;;4998613;28;20018;-93
2021/10/29 01:07:47;;;;;;;40.42;25.77;;;11.20;99.90;;;;;;4998591;28;20044;-93
2021/10/29 01:10:13;;;;;;;37.55;23.30;;;11.20;99.90;;;;;;4998675;28;20037;-93
2021/10/29 01:12:39;;;;;;;45.45;27.88;;;11.30;99.90;;;;;;4998635;28;20033;-93
2021/10/29 01:15:06;;;;;;;42.75;26.52;;;11.20;99.90;;;;;;4998391;28;20026;-94
2021/10/29 01:17:32;;;;;;;41.10;27.27;;;11.20;99.90;;;;;;4998306;28;20026;-93
2021/10/29 01:19:58;;;;;;;41.70;26.10;;;11.20;99.90;;;;;;4998078;28;20033;-93
2021/10/29 01:22:26;;;;;;;38.03;24.33;;;11.20;99.90;;;;;;4998395;28;20022;-94
2021/10/29 01:24:52;;;;;;;41.80;26.80;;;11.30;99.90;;;;;;4998114;28;20022;-93
2021/10/29 01:27:19;;;;;;;41.67;27.58;;;11.20;99.90;;;;;;4998214;28;20080;-94
2021/10/29 01:29:46;;;;;;;59.25;36.80;;;11.20;99.90;;;;;;4998022;28;20029;-93
2021/10/29 01:32:13;;;;;;;65.55;39.42;;;11.20;99.90;;;;;;4997289;28;20022;-93
2021/10/29 01:34:41;;;;;;;60.05;39.55;;;11.20;99.90;;;;;;4997910;28;20099;-93
2021/10/29 01:37:09;;;;;;;71.90;43.33;;;11.20;99.90;;;;;;4997887;28;20018;-93
2021/10/29 01:39:36;;;;;;;68.35;42.33;;;11.20;99.90;;;;;;4998067;28;20033;-94
2021/10/29 01:42:02;;;;;;;74.53;43.17;;;11.20;99.90;;;;;;4997998;28;20033;-93
2021/10/29 01:44:28;;;;;;;91.68;53.47;;;11.20;99.90;;;;;;4997820;28;20397;-93
2021/10/29 01:46:54;;;;;;;99.13;56.22;;;11.10;99.90;;;;;;4997647;28;20022;-93
2021/10/29 01:49:20;;;;;;;85.93;52.00;;;11.20;99.90;;;;;;4997912;28;20052;-93
2021/10/29 01:51:46;;;;;;;78.75;51.33;;;11.10;99.90;;;;;;4997536;28;20026;-93
2021/10/29 01:54:12;;;;;;;82.88;58.20;;;11.10;99.90;;;;;;4997776;28;20026;-93
2021/10/29 01:56:38;;;;;;;103.63;73.47;;;11.10;99.90;;;;;;4997602;28;20040;-93
2021/10/29 01:59:04;;;;;;;107.80;81.70;;;11.00;99.90;;;;;;4997492;28;20041;-94
2021/10/29 02:01:30;;;;;;;127.97;88.22;;;11.00;99.90;;;;;;4997500;28;20026;-93
2021/10/29 02:03:56;;;;;;;137.98;93.78;;;11.00;99.90;;;;;;4997481;28;20021;-94
2021/10/29 02:06:22;;;;;;;146.20;95.82;;;11.00;99.90;;;;;;4997502;28;20473;-94
2021/10/29 02:08:48;;;;;;;172.35;108.35;;;11.00;99.90;;;;;;4997557;28;20026;-93
2021/10/29 02:11:15;;;;;;;165.40;105.63;;;10.90;99.90;;;;;;4997417;28;20116;-93
2021/10/29 02:13:40;;;;;;;168.80;104.75;;;10.90;99.90;;;;;;4997339;28;20026;-93
2021/10/29 02:16:06;;;;;;;154.38;92.18;;;10.90;99.90;;;;;;4997441;28;20030;-93
2021/10/29 02:18:32;;;;;;;138.30;84.88;;;10.90;99.90;;;;;;4997067;28;20524;-94
2021/10/29 02:20:58;;;;;;;125.55;76.40;;;10.90;99.90;;;;;;4997277;28;20030;-94
2021/10/29 02:23:24;;;;;;;107.47;65.40;;;10.80;99.90;;;;;;4997178;28;20029;-94
2021/10/29 02:25:50;;;;;;;85.40;53.72;;;10.80;99.90;;;;;;4997232;28;20022;-93
2021/10/29 02:28:19;;;;;;;71.85;44.83;;;10.80;99.90;;;;;;4997046;28;20096;-94
2021/10/29 02:30:46;;;;;;;66.03;42.15;;;10.80;99.90;;;;;;4997140;28;20392;-93
2021/10/29 02:33:14;;;;;;;94.30;57.70;;;10.70;99.90;;;;;;4997041;28;20460;-95
2021/10/29 02:35:39;;;;;;;59.40;39.28;;;10.70;99.90;;;;;;4997452;28;20068;-93
2021/10/29 02:38:06;;;;;;;54.13;34.65;;;10.70;99.90;;;;;;4997218;28;20053;-92
2021/10/29 02:40:31;;;;;;;44.95;30.10;;;10.70;99.90;;;;;;4997193;28;20028;-93
2021/10/29 02:42:57;;;;;;;39.35;27.00;;;10.70;99.90;;;;;;4997264;28;20116;-94
2021/10/29 02:45:23;;;;;;;39.22;26.00;;;10.80;99.90;;;;;;5000704;28;20076;-94
2021/10/29 02:47:49;;;;;;;37.97;26.05;;;10.80;99.90;;;;;;5001270;28;20029;-94
2021/10/29 02:50:17;;;;;;;38.97;26.63;;;10.80;99.90;;;;;;5000794;28;20049;-94
2021/10/29 02:52:43;;;;;;;34.67;24.48;;;10.80;99.90;;;;;;5001075;28;20383;-93
2021/10/29 02:55:09;;;;;;;31.75;23.67;;;10.80;99.90;;;;;;5000897;28;20049;-94
2021/10/29 02:57:36;;;;;;;35.17;22.42;;;10.80;99.90;;;;;;5000703;28;20021;-94
2021/10/29 03:00:06;;;;;;;38.15;25.10;;;10.90;99.90;;;;;;5000777;28;20050;-94
2021/10/29 03:02:31;;;;;;;39.38;26.65;;;10.90;99.90;;;;;;5001250;28;20157;-92
2021/10/29 03:04:57;;;;;;;37.47;24.77;;;10.90;99.90;;;;;;5000884;28;20222;-94
2021/10/29 03:07:23;;;;;;;35.60;24.52;;;10.90;99.90;;;;;;5000738;28;20029;-94
2021/10/29 03:09:48;;;;;;;39.72;24.15;;;10.80;99.90;;;;;;5000719;28;20481;-93
2021/10/29 03:12:14;;;;;;;31.63;22.33;;;10.80;99.90;;;;;;5000693;28;20089;-93
2021/10/29 03:14:39;;;;;;;37.15;25.30;;;10.80;99.90;;;;;;5000774;28;20033;-95
2021/10/29 03:17:05;;;;;;;39.13;26.10;;;10.70;99.90;;;;;;5000588;28;20036;-93
2021/10/29 03:19:31;;;;;;;39.40;26.05;;;10.70;99.90;;;;;;5000469;28;20022;-93
2021/10/29 03:21:56;;;;;;;36.40;24.48;;;10.60;99.90;;;;;;5000514;28;20476;-93
2021/10/29 03:24:22;;;;;;;43.58;25.92;;;10.70;99.90;;;;;;5000547;28;20469;-93
2021/10/29 03:26:48;;;;;;;34.05;24.17;;;10.70;99.90;;;;;;5000266;28;20499;-93
2021/10/29 03:29:13;;;;;;;39.50;25.10;;;10.70;99.90;;;;;;5000644;28;20030;-94
2021/10/29 03:31:39;;;;;;;37.72;24.77;;;10.70;99.90;;;;;;5000457;28;20083;-93
2021/10/29 03:34:05;;;;;;;34.65;23.02;;;10.70;99.90;;;;;;5000133;28;20026;-94
2021/10/29 03:36:30;;;;;;;31.02;23.13;;;10.70;99.90;;;;;;5000301;28;20026;-93
2021/10/29 03:41:24;;;;;;;37.88;26.23;;;10.60;99.90;;;;;;5017377;28;20064;-93
2021/10/29 03:43:57;;;;;;;46.72;29.95;;;10.50;99.90;;;;;;5000124;28;20026;-94
2021/10/29 03:46:26;;;;;;;70.15;44.65;;;10.40;99.90;;;;;;4999753;28;20022;-94
2021/10/29 03:51:32;;;;;;;52.28;31.88;;;10.10;99.90;;;;;;5017495;28;20029;-93
2021/10/29 03:54:14;;;;;;;43.08;27.30;;;10.00;99.90;;;;;;4999839;28;20037;-94
2021/10/29 03:56:54;;;;;;;38.60;25.63;;;9.80;99.90;;;;;;4999468;28;20029;-93
2021/10/29 03:59:20;;;;;;;38.10;26.05;;;9.70;99.90;;;;;;4999783;28;20489;-93
2021/10/29 04:01:45;;;;;;;37.22;24.15;;;9.60;99.90;;;;;;4999811;28;20037;-93
2021/10/29 04:04:11;;;;;;;50.10;33.22;;;9.50;99.90;;;;;;4999636;28;20033;-94
2021/10/29 04:06:37;;;;;;;61.38;40.80;;;9.40;99.90;;;;;;4999705;28;20018;-93
2021/10/29 04:09:03;;;;;;;125.75;79.30;;;9.20;99.90;;;;;;4999618;28;20026;-94
2021/10/29 04:11:34;;;;;;;98.55;59.20;;;9.20;99.90;;;;;;4999392;28;20032;-93
2021/10/29 04:14:00;;;;;;;84.30;52.92;;;9.00;99.90;;;;;;4999553;28;20056;-93
2021/10/29 04:16:26;;;;;;;146.82;88.00;;;8.90;99.90;;;;;;4999494;28;20026;-94
2021/10/29 04:18:52;;;;;;;56.13;36.13;;;8.90;99.90;;;;;;4999420;28;20025;-93
2021/10/29 04:21:17;;;;;;;59.60;38.65;;;8.80;99.90;;;;;;4999546;28;20037;-93
2021/10/29 04:23:43;;;;;;;51.65;32.00;;;8.80;99.90;;;;;;4999651;28;20092;-94
2021/10/29 04:29:39;;;;;;;52.20;33.28;;;9.00;99.90;;;;;;5017000;28;20033;-93
2021/10/29 04:32:05;;;;;;;56.05;34.42;;;9.10;99.90;;;;;;4999296;28;20076;-93
2021/10/29 04:34:30;;;;;;;60.40;36.17;;;9.20;99.90;;;;;;4999257;28;20022;-93
2021/10/29 04:36:58;;;;;;;52.15;35.05;;;9.20;99.90;;;;;;4999115;28;20477;-95
2021/10/29 04:39:24;;;;;;;54.30;34.17;;;9.30;99.90;;;;;;4998863;28;20053;-94
2021/10/29 04:41:50;;;;;;;50.05;33.80;;;9.30;99.90;;;;;;4999159;28;20017;-95
2021/10/29 04:44:20;;;;;;;56.50;36.80;;;9.50;99.90;;;;;;4999379;28;20032;-94
2021/10/29 04:46:53;;;;;;;54.75;36.30;;;9.60;99.90;;;;;;4999992;28;20018;-95
2021/10/29 04:49:19;;;;;;;57.13;35.55;;;9.70;99.90;;;;;;4999069;28;20030;-93
2021/10/29 04:51:44;;;;;;;55.33;36.15;;;9.70;99.90;;;;;;4999083;28;20022;-93
2021/10/29 04:54:10;;;;;;;52.60;35.50;;;9.80;99.90;;;;;;4998857;28;20029;-94
2021/10/29 04:56:36;;;;;;;56.58;36.03;;;9.80;99.90;;;;;;4998835;28;20033;-94
2021/10/29 04:59:02;;;;;;;52.30;37.08;;;9.80;99.90;;;;;;4998562;28;20378;-93
2021/10/29 05:01:28;;;;;;;53.55;33.60;;;9.90;99.90;;;;;;4998621;28;20091;-93
2021/10/29 05:03:53;;;;;;;62.50;34.97;;;10.00;99.90;;;;;;4998565;28;20033;-94
2021/10/29 05:06:19;;;;;;;64.10;36.65;;;10.00;99.90;;;;;;4998626;28;20049;-93
2021/10/29 05:08:45;;;;;;;67.35;36.05;;;10.00;99.90;;;;;;4997562;28;20030;-92
2021/10/29 05:11:11;;;;;;;64.35;36.85;;;10.10;99.90;;;;;;4998524;28;20022;-92
2021/10/29 05:13:37;;;;;;;61.88;36.38;;;10.10;99.90;;;;;;5015955;28;20025;-93
2021/10/29 05:16:04;;;;;;;77.10;38.25;;;10.10;99.90;;;;;;4998554;28;20540;-93
2021/10/29 05:18:29;;;;;;;103.20;40.72;;;10.00;99.90;;;;;;4998777;28;20030;-95
2021/10/29 05:20:55;;;;;;;86.07;38.38;;;10.00;99.90;;;;;;4998298;28;20484;-94
2021/10/29 05:23:22;;;;;;;146.00;42.70;;;9.90;99.90;;;;;;4998570;28;20426;-94
2021/10/29 05:25:48;;;;;;;124.45;41.38;;;9.80;99.90;;;;;;4998539;28;20033;-93
2021/10/29 05:28:15;;;;;;;97.05;39.00;;;9.90;99.90;;;;;;4998179;28;20025;-93
2021/10/29 05:30:40;;;;;;;82.88;36.05;;;9.90;99.90;;;;;;4998042;28;20025;-92
2021/10/29 05:33:06;;;;;;;103.45;36.17;;;10.00;99.90;;;;;;4998172;28;20040;-93
2021/10/29 05:35:32;;;;;;;77.40;33.85;;;10.00;99.90;;;;;;4997992;28;20030;-92
2021/10/29 05:37:58;;;;;;;151.45;46.58;;;10.10;99.90;;;;;;4997759;28;20026;-94
2021/10/29 05:40:24;;;;;;;138.90;40.83;;;10.10;99.90;;;;;;4997994;28;20026;-92
2021/10/29 05:42:50;;;;;;;104.40;38.67;;;10.10;99.90;;;;;;4997873;28;20091;-93
2021/10/29 05:45:16;;;;;;;189.93;56.35;;;10.10;99.90;;;;;;4998168;28;20026;-93
2021/10/29 05:47:42;;;;;;;136.38;42.80;;;10.10;99.90;;;;;;4997732;28;20427;-92
2021/10/29 05:50:10;;;;;;;149.02;48.15;;;10.10;99.90;;;;;;4997855;28;20440;-92
2021/10/29 05:52:39;;;;;;;177.27;38.85;;;10.10;99.90;;;;;;4997758;28;20037;-92
2021/10/29 05:55:19;;;;;;;246.30;47.22;;;10.20;99.90;;;;;;4997813;28;20121;-92
2021/10/29 05:57:47;;;;;;;203.98;39.05;;;10.10;99.90;;;;;;4997532;28;20121;-92
2021/10/29 06:00:16;;;;;;;231.02;42.35;;;10.10;99.90;;;;;;4997450;28;20053;-91
2021/10/29 06:02:43;;;;;;;149.75;38.30;;;10.20;99.90;;;;;;5014794;28;20022;-91
2021/10/29 06:05:09;;;;;;;206.23;31.10;;;10.20;99.90;;;;;;4997560;28;20029;-92
2021/10/29 06:07:36;;;;;;;198.57;33.00;;;10.20;99.90;;;;;;4997561;28;20507;-91
2021/10/29 06:10:05;;;;;;;320.58;41.28;;;10.30;99.90;;;;;;5015027;28;20057;-91
2021/10/29 06:12:32;;;;;;;443.17;54.17;;;10.30;99.90;;;;;;4997795;28;20036;-92
2021/10/29 06:14:58;;;;;;;307.48;39.88;;;10.30;99.90;;;;;;4997409;28;20087;-91
2021/10/29 06:17:27;;;;;;;155.77;35.15;;;10.30;99.90;;;;;;4997332;28;20426;-91
2021/10/29 06:19:52;;;;;;;254.38;40.25;;;10.30;99.90;;;;;;4996850;28;20022;-91
2021/10/29 06:24:45;;;;;;;327.58;41.17;;;10.40;99.90;;;;;;5014696;28;20022;-91
2021/10/29 06:28:11;;;;;;;222.63;32.03;;;10.30;99.90;;;;;;4997984;28;20026;-92
2021/10/29 06:29:58;;;;;;;601.63;84.35;;;10.20;99.90;;;;;;5014403;28;20053;-91
2021/10/29 06:32:24;;;;;;;335.65;58.40;;;10.20;99.90;;;;;;4997094;28;20408;-93
2021/10/29 06:34:50;;;;;;;285.98;37.53;;;10.20;99.90;;;;;;4997350;28;20022;-94
2021/10/29 06:37:18;;;;;;;217.05;31.95;;;10.20;99.90;;;;;;4997240;28;20377;-92
2021/10/29 06:39:47;;;;;;;236.52;32.22;;;10.20;99.90;;;;;;4997470;28;20018;-91
2021/10/29 06:42:35;;;;;;;336.63;44.10;;;10.30;99.90;;;;;;4997273;28;20025;-94
2021/10/29 07:00:47;;;;;;;295.30;32.53;;;10.80;99.90;;;;;;5014569;28;20115;-91
2021/10/29 07:41:41;;;;;;;41.95;23.08;;;11.10;99.90;;;;;;5017854;28;20029;-92
2021/10/29 07:44:15;;;;;;;90.88;25.02;;;10.80;99.90;;;;;;5000249;28;20026;-91
2021/10/29 07:46:42;;;;;;;114.43;27.40;;;10.80;99.90;;;;;;4999782;28;20026;-93
2021/10/29 07:49:08;;;;;;;62.10;25.58;;;10.50;99.90;;;;;;5000193;28;20068;-93
2021/10/29 07:51:37;;;;;;;64.70;25.05;;;10.80;99.90;;;;;;5000181;28;20542;-91
2021/10/29 07:54:02;;;;;;;79.97;24.80;;;10.90;99.90;;;;;;4999972;28;20034;-92
2021/10/29 07:56:28;;;;;;;64.85;22.88;;;10.90;99.90;;;;;;4999853;28;20026;-93
2021/10/29 07:58:54;;;;;;;44.60;19.98;;;10.90;99.90;;;;;;4999650;28;20041;-91
2021/10/29 08:01:20;;;;;;;99.70;22.58;;;11.10;99.90;;;;;;4999886;28;20057;-92
2021/10/29 08:03:46;;;;;;;123.28;23.33;;;11.00;99.90;;;;;;4999915;28;20025;-94
2021/10/29 08:06:12;;;;;;;71.18;22.95;;;11.00;99.90;;;;;;5000079;28;20060;-91
2021/10/29 08:08:37;;;;;;;87.80;24.60;;;11.00;99.90;;;;;;4999676;28;20034;-91
2021/10/29 08:11:03;;;;;;;67.35;24.63;;;11.00;99.90;;;;;;5000018;28;20064;-95
2021/10/29 08:13:29;;;;;;;71.18;23.02;;;11.00;99.90;;;;;;4999882;28;20133;-93
2021/10/29 08:15:59;;;;;;;74.53;26.45;;;11.00;99.90;;;;;;4999803;28;20481;-93
2021/10/29 08:18:25;;;;;;;96.75;23.27;;;11.10;99.90;;;;;;4999255;28;20026;-94
2021/10/29 08:20:52;;;;;;;47.50;21.65;;;11.10;99.90;;;;;;4999711;28;20108;-91
2021/10/29 08:23:18;;;;;;;78.60;22.85;;;11.10;99.90;;;;;;4999581;28;20025;-92
2021/10/29 08:25:43;;;;;;;43.47;21.35;;;11.10;99.90;;;;;;4999465;28;20053;-91
2021/10/29 08:28:10;;;;;;;69.25;20.85;;;11.00;99.90;;;;;;4999367;28;20026;-92
2021/10/29 08:30:36;;;;;;;41.47;21.25;;;11.00;99.90;;;;;;4999881;28;20030;-92
2021/10/29 08:33:01;;;;;;;60.13;19.40;;;11.00;99.90;;;;;;4999617;28;20120;-92
2021/10/29 08:35:28;;;;;;;55.72;23.10;;;11.10;99.90;;;;;;4999132;28;20111;-95
2021/10/29 08:37:53;;;;;;;56.35;21.75;;;11.10;99.90;;;;;;4999306;28;20033;-93
2021/10/29 08:40:25;;;;;;;71.50;22.02;;;11.10;99.90;;;;;;4999007;28;20026;-94
2021/10/29 08:42:51;;;;;;;44.47;21.85;;;11.20;99.90;;;;;;4999032;28;20028;-94
2021/10/29 08:45:18;;;;;;;38.33;20.80;;;11.30;99.90;;;;;;4999051;28;20452;-93
2021/10/29 08:47:46;;;;;;;47.53;20.73;;;11.30;99.90;;;;;;4998920;28;20056;-92
2021/10/29 08:50:15;;;;;;;38.28;20.83;;;11.20;99.90;;;;;;4999196;28;20034;-94
2021/10/29 08:52:45;;;;;;;35.08;19.40;;;11.30;99.90;;;;;;4998760;28;20469;-92
2021/10/29 08:55:12;;;;;;;36.40;19.63;;;11.50;99.90;;;;;;4998871;28;20061;-90
2021/10/29 08:57:39;;;;;;;48.75;19.35;;;11.50;99.90;;;;;;4998713;28;20034;-91
2021/10/29 09:00:12;;;;;;;42.00;20.92;;;11.60;99.90;;;;;;5016042;28;20045;-91
2021/10/29 09:03:04;;;;;;;45.70;20.25;;;11.70;99.90;;;;;;4998807;28;20117;-90
2021/10/29 09:08:40;;;;;;;26.60;16.63;;;11.80;99.90;;;;;;5016594;28;20112;-91
2021/10/29 09:33:06;;;;;;;34.08;18.83;;;11.90;99.90;;;;;;5015775;28;20021;-92
2021/10/29 09:35:36;;;;;;;35.75;18.55;;;11.90;99.90;;;;;;4998078;28;20056;-92
2021/10/29 09:38:08;;;;;;;28.92;17.65;;;11.80;99.90;;;;;;4997906;28;20079;-92
2021/10/29 09:40:36;;;;;;;31.33;17.98;;;11.80;99.90;;;;;;5015485;28;20029;-93
2021/10/29 09:43:13;;;;;;;49.97;20.25;;;11.90;99.90;;;;;;5015484;28;20077;-93
2021/10/29 09:45:49;;;;;;;72.53;19.95;;;11.70;99.90;;;;;;4997667;28;20022;-93
2021/10/29 09:49:05;;;;;;;50.85;17.73;;;11.70;99.90;;;;;;4997752;28;20037;-94
2021/10/29 09:51:11;;;;;;;29.98;16.42;;;11.70;99.90;;;;;;5004544;28;20113;-93
2021/10/29 09:53:44;;;;;;;30.10;16.65;;;11.80;99.90;;;;;;4997187;28;20033;-94
2021/10/29 09:58:55;;;;;;;27.98;17.63;;;11.80;99.90;;;;;;5015529;28;20030;-93
2021/10/29 10:01:23;;;;;;;29.38;17.38;;;11.80;99.90;;;;;;4997187;28;20554;-95
2021/10/29 10:03:50;;;;;;;34.65;17.05;;;11.80;99.90;;;;;;4997452;28;20029;-93
2021/10/29 10:06:19;;;;;;;35.83;18.05;;;11.80;99.90;;;;;;4997620;28;20464;-94
2021/10/29 10:08:46;;;;;;;26.70;16.05;;;11.70;99.90;;;;;;4997149;28;20030;-94
2021/10/29 10:11:14;;;;;;;29.83;17.77;;;11.80;99.90;;;;;;4997793;28;20030;-94
2021/10/29 10:13:41;;;;;;;31.45;17.52;;;11.80;99.90;;;;;;4997327;28;20033;-94
2021/10/29 10:16:08;;;;;;;28.05;16.83;;;11.80;99.90;;;;;;4997377;28;20026;-94
2021/10/29 10:18:34;;;;;;;27.63;18.13;;;11.90;99.90;;;;;;4997285;28;20033;-94
2021/10/29 10:21:04;;;;;;;25.10;16.13;;;11.90;99.90;;;;;;4997471;28;20109;-96
2021/10/29 10:23:35;;;;;;;29.80;16.60;;;12.00;99.90;;;;;;4997375;28;20033;-94
2021/10/29 10:26:21;;;;;;;31.50;16.23;;;11.90;99.90;;;;;;4997451;28;20022;-93
2021/10/29 10:29:04;;;;;;;27.48;16.25;;;11.90;99.90;;;;;;4997486;28;20111;-93
2021/10/29 10:40:16;;;;;;;26.50;16.65;;;11.90;99.90;;;;;;4997206;28;20037;-94
2021/10/29 10:40:54;;;;;;;42.85;20.27;;;11.90;99.90;;;;;;5015055;28;20125;-93
2021/10/29 10:45:58;;;;;;;26.45;16.45;;;11.80;99.90;;;;;;5014461;28;20029;-93
2021/10/29 10:48:30;;;;;;;37.72;16.15;;;11.90;99.90;;;;;;4996904;28;20080;-93
2021/10/29 10:51:33;;;;;;;24.33;14.90;;;11.90;99.90;;;;;;4996958;28;20041;-93
2021/10/29 10:54:19;;;;;;;24.90;15.63;;;12.00;99.90;;;;;;4997025;28;20122;-94
2021/10/29 11:00:35;;;;;;;33.47;17.17;;;12.00;99.90;;;;;;5024329;28;20042;-96
2021/10/29 11:11:11;;;;;;;31.58;16.60;;;12.10;99.90;;;;;;5021123;28;20041;-94
2021/10/29 11:13:43;;;;;;;57.90;16.95;;;12.20;99.90;;;;;;5002137;28;20022;-95
2021/10/29 11:16:13;;;;;;;65.60;18.27;;;12.20;99.90;;;;;;5001576;28;20489;-95
2021/10/29 11:18:51;;;;;;;;;;;12.20;99.90;;;;;;5001477;28;20499;-94
2021/10/29 11:21:34;;;;;;;30.92;15.85;;;12.10;99.90;;;;;;5001337;28;19956;-94
2021/10/29 11:24:01;;;;;;;36.58;16.15;;;12.10;99.90;;;;;;5001204;28;20026;-95
2021/10/29 11:26:46;;;;;;;29.65;16.63;;;12.10;99.90;;;;;;5002592;28;20041;-95
2021/10/29 11:29:13;;;;;;;36.60;16.55;;;12.10;99.90;;;;;;5001037;28;20124;-94
2021/10/29 11:31:46;;;;;;;41.45;18.98;;;11.80;99.90;;;;;;5000391;28;20365;-95
2021/10/29 11:34:15;;;;;;;31.38;16.10;;;11.70;99.90;;;;;;5000610;28;20030;-92
2021/10/29 11:36:49;;;;;;;32.78;18.00;;;11.70;99.90;;;;;;5000364;28;20026;-93
2021/10/29 11:39:16;;;;;;;26.90;16.45;;;11.80;99.90;;;;;;5000173;28;20057;-92
2021/10/29 11:41:45;;;;;;;25.30;15.70;;;11.80;99.90;;;;;;5000145;28;20388;-92
2021/10/29 11:44:20;;;;;;;24.45;15.02;;;12.00;99.90;;;;;;5000651;28;20109;-92
2021/10/29 11:46:48;;;;;;;48.72;17.05;;;12.10;99.90;;;;;;5002235;28;20022;-91
2021/10/29 11:49:25;;;;;;;25.33;14.80;;;12.10;99.90;;;;;;5003721;28;20038;-90
2021/10/29 11:51:53;;;;;;;66.03;17.58;;;12.10;99.90;;;;;;5002570;28;20080;-89
2021/10/29 11:54:34;;;;;;;55.83;22.98;;;12.00;99.90;;;;;;5000051;28;20033;-89
2021/10/29 11:57:28;;;;;;;55.10;21.60;;;11.90;99.90;;;;;;4999805;28;20056;-89
2021/10/29 12:05:51;;;;;;;63.38;14.23;;;11.80;99.90;;;;;;5017124;28;20032;-89
2021/10/29 12:08:28;;;;;;;97.97;15.43;;;11.80;99.90;;;;;;4999671;28;20064;-89
2021/10/29 12:11:02;;;;;;;31.83;13.85;;;11.70;99.90;;;;;;4999619;28;20049;-89
2021/10/29 12:13:29;;;;;;;39.38;14.20;;;11.60;99.90;;;;;;4999443;28;20037;-89
2021/10/29 12:15:55;;;;;;;41.97;14.73;;;11.60;99.90;;;;;;4999258;28;20113;-89
2021/10/29 12:18:30;;;;;;;91.68;15.10;;;11.50;99.90;;;;;;4999038;28;20046;-89
2021/10/29 12:20:56;;;;;;;63.38;13.25;;;11.50;99.90;;;;;;4999617;28;20030;-89
2021/10/29 12:23:28;;;;;;;47.42;11.43;;;11.40;99.90;;;;;;4999293;28;20030;-89
2021/10/29 12:31:10;;;;;;;64.20;12.88;;;11.40;99.90;;;;;;5016929;28;20049;-89
2021/10/29 12:37:31;;;;;;;53.83;13.68;;;11.20;99.90;;;;;;5016953;28;20516;-89
2021/10/29 13:01:57;;;;;;;34.20;12.63;;;11.20;99.90;;;;;;5016306;28;20084;-89
2021/10/29 13:04:40;;;;;;;95.15;14.55;;;11.20;99.90;;;;;;4998664;28;20399;-89
2021/10/29 13:07:06;;;;;;;52.05;13.35;;;11.10;99.90;;;;;;4998462;28;20025;-89
2021/10/29 13:09:35;;;;;;;47.83;14.55;;;10.90;99.90;;;;;;5015949;28;20033;-89
2021/10/29 13:12:12;;;;;;;69.82;12.48;;;10.80;99.90;;;;;;4998362;28;20477;-89
2021/10/29 13:14:41;;;;;;;50.15;12.32;;;10.70;99.90;;;;;;4998361;28;20116;-89
2021/10/29 13:17:12;;;;;;;24.42;9.65;;;10.60;99.90;;;;;;4998404;28;20267;-89
2021/10/29 13:20:16;;;;;;;25.88;10.23;;;10.60;99.90;;;;;;4998479;28;20030;-89
2021/10/29 14:36:01;;;;;;;110.00;45.35;;;10.10;99.90;;;;;;5085033;28;20435;-90
2021/10/29 14:38:45;;;;;;;378.13;206.48;;;10.20;99.90;;;;;;5050600;28;20483;-88
2021/10/29 14:41:24;;;;;;;370.80;161.52;;;10.20;99.90;;;;;;5050598;28;20025;-89
2021/10/29 14:43:56;;;;;;;462.27;198.00;;;10.30;99.90;;;;;;5050895;28;20032;-92
2021/10/29 15:00:31;;;;;;;123.13;33.10;;;10.40;99.90;;;;;;5051752;28;20036;-88
2021/10/29 15:27:33;;;;;;;37.90;27.45;;;10.70;99.90;;;;;;5051605;28;20030;-89
2021/10/29 15:30:45;;;;;;;85.03;41.10;;;10.70;99.90;;;;;;5049656;28;20052;-88
2021/10/29 15:44:20;;;;;;;37.67;18.95;;;10.80;99.90;;;;;;5050520;28;20025;-91
2021/10/29 15:49:19;;;;;;;39.78;23.95;;;10.60;99.90;;;;;;5037277;28;20018;-89
2021/10/29 15:52:00;;;;;;;42.13;17.05;;;10.60;99.90;;;;;;5036223;28;20044;-90
2021/10/29 15:54:26;;;;;;;105.57;18.98;;;10.60;99.90;;;;;;5037495;28;20079;-90
2021/10/29 16:18:29;;;;;;;82.18;16.33;;;9.90;99.90;;;;;;5037093;28;20069;-89
2021/10/29 16:20:54;;;;;;;58.75;16.00;;;9.80;99.90;;;;;;5035586;28;20018;-89
2021/10/29 16:23:26;;;;;;;63.00;15.48;;;9.80;99.90;;;;;;5035957;28;20029;-89
2021/10/29 16:25:56;;;;;;;54.15;27.73;;;9.80;99.90;;;;;;5035289;28;20032;-87
2021/10/29 16:28:27;;;;;;;174.38;89.72;;;9.80;99.90;;;;;;5035381;28;20022;-89
2021/10/29 16:30:52;;;;;;;159.30;83.65;;;9.70;99.90;;;;;;5036193;28;20029;-88
2021/10/29 16:33:24;;;;;;;49.97;20.65;;;9.60;99.90;;;;;;5036244;28;20380;-89
2021/10/29 16:35:50;;;;;;;133.18;29.15;;;9.60;99.90;;;;;;5035335;28;20046;-90
2021/10/29 16:38:16;;;;;;;50.88;15.75;;;9.50;99.90;;;;;;5035559;28;20028;-89
2021/10/29 16:40:42;;;;;;;154.07;17.08;;;9.50;99.90;;;;;;5035059;28;20025;-90
2021/10/29 16:43:08;;;;;;;88.88;16.85;;;9.30;99.90;;;;;;5035392;28;20552;-89
2021/10/29 16:45:41;;;;;;;117.32;15.77;;;9.20;99.90;;;;;;5035254;28;20120;-89
2021/10/29 16:48:06;;;;;;;113.10;16.50;;;9.20;99.90;;;;;;5035301;28;20029;-91
2021/10/29 16:50:33;;;;;;;82.22;14.15;;;9.20;99.90;;;;;;5036043;28;20032;-91
2021/10/29 16:52:59;;;;;;;66.38;13.82;;;9.00;99.90;;;;;;5034769;28;20079;-90
2021/10/29 16:55:27;;;;;;;102.72;33.88;;;8.90;99.90;;;;;;5034574;28;20037;-90
2021/10/29 16:57:52;;;;;;;47.92;18.35;;;9.00;99.90;;;;;;5034579;28;20060;-90
2021/10/29 17:00:18;;;;;;;99.82;16.38;;;9.00;99.90;;;;;;5034549;28;20033;-90
2021/10/29 17:02:44;;;;;;;121.65;22.70;;;9.00;99.90;;;;;;5034799;28;20105;-90
2021/10/29 17:05:11;;;;;;;88.85;19.45;;;9.00;99.90;;;;;;5034912;28;20392;-91
2021/10/29 17:07:38;;;;;;;146.05;19.92;;;9.10;99.90;;;;;;5034501;28;20021;-91
2021/10/29 17:10:08;;;;;;;49.08;14.82;;;9.20;99.90;;;;;;5034634;28;20033;-90
2021/10/29 17:12:35;;;;;;;;;;;9.20;99.90;;;;;;5035196;28;20111;-90
2021/10/29 17:15:01;;;;;;;63.80;15.27;;;9.10;99.90;;;;;;5034692;28;19913;-91
2021/10/29 17:17:26;;;;;;;107.93;18.85;;;9.10;99.90;;;;;;5035212;28;20026;-90
2021/10/29 17:19:52;;;;;;;100.40;21.00;;;9.20;99.90;;;;;;5034414;28;20021;-90
2021/10/29 17:22:18;;;;;;;112.65;20.88;;;9.10;99.90;;;;;;5034359;28;20021;-90
2021/10/29 17:24:45;;;;;;;50.25;16.45;;;9.00;99.90;;;;;;5034304;28;20128;-90
2021/10/29 17:27:11;;;;;;;123.43;23.80;;;9.10;99.90;;;;;;5034336;28;20507;-90
2021/10/29 17:29:36;;;;;;;123.80;21.92;;;9.10;99.90;;;;;;5034018;28;20029;-90
2021/10/29 17:32:02;;;;;;;89.40;22.75;;;9.00;99.90;;;;;;5034209;28;20036;-90